createdAt,value
2023-01-03T00:00:14.731Z,99078.53
2023-01-03T00:05:16.824Z,99087.94
2023-01-03T00:10:19.007Z,99108.09
2023-01-03T00:15:21.052Z,99117.78
2023-01-03T00:20:23.216Z,99133.03
2023-01-03T00:25:26.825Z,99114.50
2023-01-03T00:30:29.212Z,99126.09
2023-01-03T00:35:31.625Z,99108.25
2023-01-03T00:40:33.818Z,99108.22
2023-01-03T00:45:38.847Z,99111.50
2023-01-03T00:50:40.861Z,99113.09
2023-01-03T00:55:42.972Z,99115.47
2023-01-03T01:00:44.942Z,99110.84
2023-01-03T01:05:46.921Z,99102.31
2023-01-03T01:11:02.067Z,99095.34
2023-01-03T01:16:18.166Z,99086.03
2023-01-03T01:21:28.148Z,99100.00
2023-01-03T01:26:30.668Z,99108.56
2023-01-03T01:31:33.369Z,99119.66
2023-01-03T01:36:38.053Z,99129.75
2023-01-03T01:42:00.462Z,99123.13
2023-01-03T01:47:03.211Z,99112.31
2023-01-03T01:52:06.353Z,99131.81
2023-01-03T01:57:14.772Z,99140.38
2023-01-03T02:02:24.231Z,99132.75
2023-01-03T02:07:26.701Z,99128.59
2023-01-03T02:13:13.529Z,99130.28
2023-01-03T02:18:46.856Z,99134.94
2023-01-03T02:24:12.175Z,99146.59
2023-01-03T02:29:23.436Z,99150.47
2023-01-03T02:34:49.806Z,99147.34
2023-01-03T02:40:00.909Z,99136.88
2023-01-03T02:45:15.820Z,99137.25
2023-01-03T02:50:22.402Z,99129.50
2023-01-03T02:55:29.820Z,99133.38
2023-01-03T03:00:35.153Z,99144.25
2023-01-03T03:05:45.807Z,99146.56
2023-01-03T03:11:07.804Z,99153.16
2023-01-03T03:16:41.077Z,99155.09
2023-01-03T03:22:02.502Z,99140.75
2023-01-03T03:27:28.826Z,99127.16
2023-01-03T03:32:34.339Z,99124.09
2023-01-03T03:37:40.644Z,99127.97
2023-01-03T03:43:16.663Z,99127.94
2023-01-03T03:49:05.549Z,99133.38
2023-01-03T03:54:16.081Z,99153.91
2023-01-03T03:59:24.552Z,99147.34
2023-01-03T04:04:33.374Z,99155.88
2023-01-03T04:09:36.026Z,99157.44
2023-01-03T04:14:38.379Z,99152.75
2023-01-03T04:19:40.786Z,99159.63
2023-01-03T04:24:43.210Z,99159.63
2023-01-03T04:29:45.791Z,99164.28
2023-01-03T04:34:48.274Z,99167.41
2023-01-03T04:39:50.693Z,99158.84
2023-01-03T04:44:53.430Z,99171.22
2023-01-03T04:49:55.860Z,99175.97
2023-01-03T04:54:58.270Z,99176.81
2023-01-03T05:00:00.984Z,99170.97
2023-01-03T05:05:03.620Z,99179.19
2023-01-03T05:10:06.517Z,99169.06
2023-01-03T05:15:09.475Z,99170.59
2023-01-03T05:20:30.609Z,99179.97
2023-01-03T05:25:51.295Z,99172.97
2023-01-03T05:30:53.820Z,99172.19
2023-01-03T05:35:56.484Z,99172.53
2023-01-03T05:40:59.206Z,99171.97
2023-01-03T05:46:02.066Z,99173.16
2023-01-03T05:51:05.043Z,99192.84
2023-01-03T05:56:07.638Z,99187.69
2023-01-03T06:01:11.779Z,99193.94
2023-01-03T06:06:15.917Z,99199.84
2023-01-03T06:11:18.500Z,99207.03
2023-01-03T06:16:40.239Z,99204.75
2023-01-03T06:21:42.324Z,99210.59
2023-01-03T06:26:44.338Z,99210.88
2023-01-03T06:31:46.864Z,99218.75
2023-01-03T06:36:50.416Z,99218.72
2023-01-03T06:41:52.820Z,99221.56
2023-01-03T06:47:14.030Z,99221.66
2023-01-03T06:52:35.977Z,99228.75
2023-01-03T06:57:38.626Z,99224.56
2023-01-03T07:02:41.181Z,99226.56
2023-01-03T07:07:43.898Z,99238.91
2023-01-03T07:13:06.583Z,99245.44
2023-01-03T07:18:09.016Z,99247.69
2023-01-03T07:23:13.320Z,99259.94
2023-01-03T07:28:16.937Z,99253.41
2023-01-03T07:33:19.790Z,99258.19
2023-01-03T07:38:22.218Z,99261.44
2023-01-03T07:43:37.155Z,99270.03
2023-01-03T07:48:40.441Z,99266.34
2023-01-03T07:53:43.848Z,99276.75
2023-01-03T07:58:47.654Z,99278.03
2023-01-03T08:03:50.463Z,99280.50
2023-01-03T08:09:12.116Z,99283.78
2023-01-03T08:14:14.537Z,99288.44
2023-01-03T08:19:17.117Z,99288.59
2023-01-03T08:24:19.513Z,99291.38
2023-01-03T08:29:21.959Z,99291.00
2023-01-03T08:34:30.110Z,99293.28
2023-01-03T08:39:38.317Z,99287.03
2023-01-03T08:44:41.675Z,99300.31
2023-01-03T08:49:44.351Z,99306.16
2023-01-03T08:54:47.209Z,99315.84
2023-01-03T08:59:49.651Z,99318.88
2023-01-03T09:04:52.047Z,99310.34
2023-01-03T09:09:54.488Z,99318.06
2023-01-03T09:14:56.993Z,99316.44
2023-01-03T09:19:59.474Z,99321.13
2023-01-03T09:25:02.263Z,99320.50
2023-01-03T09:30:05.493Z,99330.53
2023-01-03T09:35:08.809Z,99334.81
2023-01-03T09:40:11.894Z,99341.03
2023-01-03T09:45:19.251Z,99341.31
2023-01-03T09:50:39.368Z,99349.84
2023-01-03T09:56:18.370Z,99352.94
2023-01-03T10:01:51.930Z,99344.00
2023-01-03T10:07:03.339Z,99350.56
2023-01-03T10:12:18.478Z,99341.13
2023-01-03T10:17:34.316Z,99347.28
2023-01-03T10:22:38.157Z,99354.28
2023-01-03T10:28:06.777Z,99344.19
2023-01-03T10:33:31.042Z,99341.09
2023-01-03T10:38:38.417Z,99339.91
2023-01-03T10:43:57.542Z,99332.19
2023-01-03T10:49:27.787Z,99342.41
2023-01-03T10:54:53.395Z,99328.00
2023-01-03T10:59:55.436Z,99321.38
2023-01-03T11:05:16.154Z,99315.56
2023-01-03T11:10:19.636Z,99305.44
2023-01-03T11:15:40.045Z,99309.25
2023-01-03T11:21:17.836Z,99306.03
2023-01-03T11:26:45.386Z,99301.25
2023-01-03T11:32:10.927Z,99298.25
2023-01-03T11:37:27.365Z,99296.41
2023-01-03T11:42:55.113Z,99297.97
2023-01-03T11:48:22.562Z,99282.00
2023-01-03T11:53:44.078Z,99283.91
2023-01-03T11:58:56.319Z,99283.91
2023-01-03T12:04:20.417Z,99280.44
2023-01-03T12:09:39.341Z,99273.09
2023-01-03T12:15:12.297Z,99268.44
2023-01-03T12:20:32.221Z,99266.41
2023-01-03T12:25:42.438Z,99258.03
2023-01-03T12:31:05.498Z,99263.44
2023-01-03T12:36:45.262Z,99262.56
2023-01-03T12:42:17.435Z,99262.19
2023-01-03T12:47:30.796Z,99257.19
2023-01-03T12:52:35.409Z,99252.63
2023-01-03T12:57:49.715Z,99258.75
2023-01-03T13:03:02.318Z,99250.66
2023-01-03T13:08:12.154Z,99245.88
2023-01-03T13:13:19.430Z,99245.75
2023-01-03T13:18:21.474Z,99242.78
2023-01-03T13:23:56.323Z,99233.81
2023-01-03T13:29:35.334Z,99231.31
2023-01-03T13:34:37.525Z,99231.94
2023-01-03T13:39:47.974Z,99241.06
2023-01-03T13:44:51.254Z,99227.19
2023-01-03T13:49:54.204Z,99228.34
2023-01-03T13:54:59.119Z,99234.13
2023-01-03T14:00:14.072Z,99232.09
2023-01-03T14:05:38.060Z,99233.19
2023-01-03T14:11:16.583Z,99221.75
2023-01-03T14:16:43.340Z,99233.00
2023-01-03T14:22:30.374Z,99231.25
2023-01-03T14:27:40.545Z,99231.44
2023-01-03T14:32:43.083Z,99239.25
2023-01-03T14:37:47.362Z,99238.72
2023-01-03T14:42:49.772Z,99241.66
2023-01-03T14:47:55.290Z,99239.09
2023-01-03T14:53:01.649Z,99239.59
2023-01-03T14:58:31.073Z,99247.97
2023-01-03T15:03:43.636Z,99255.13
2023-01-03T15:08:47.770Z,99248.25
2023-01-03T15:13:55.708Z,99260.34
2023-01-03T15:19:18.780Z,99258.41
2023-01-03T15:24:23.850Z,99266.38
2023-01-03T15:29:43.020Z,99264.06
2023-01-03T15:34:45.840Z,99267.34
2023-01-03T15:39:54.733Z,99272.03
2023-01-03T15:44:57.789Z,99264.22
2023-01-03T15:50:02.944Z,99265.81
2023-01-03T15:55:05.842Z,99278.34
2023-01-03T16:00:16.118Z,99279.56
2023-01-03T16:05:22.418Z,99288.53
2023-01-03T16:10:25.216Z,99290.81
2023-01-03T16:15:28.529Z,99297.81
2023-01-03T16:20:33.249Z,99299.00
2023-01-03T16:25:35.809Z,99294.78
2023-01-03T16:30:38.206Z,99289.38
2023-01-03T16:35:40.619Z,99294.09
2023-01-03T16:40:45.073Z,99302.66
2023-01-03T16:45:48.194Z,99310.41
2023-01-03T16:50:53.396Z,99308.06
2023-01-03T16:55:56.366Z,99309.22
2023-01-03T17:00:58.889Z,99313.84
2023-01-03T17:06:01.902Z,99313.84
2023-01-03T17:11:06.813Z,99320.81
2023-01-03T17:16:15.536Z,99315.75
2023-01-03T17:21:27.389Z,99327.81
2023-01-03T17:26:33.118Z,99331.19
2023-01-03T17:31:35.905Z,99330.44
2023-01-03T17:36:38.691Z,99328.91
2023-01-03T17:42:00.039Z,99337.81
2023-01-03T17:47:34.470Z,99343.56
2023-01-03T17:52:38.831Z,99349.81
2023-01-03T17:57:41.370Z,99342.41
2023-01-03T18:02:44.265Z,99341.59
2023-01-03T18:07:47.096Z,99338.56
2023-01-03T18:12:49.633Z,99328.00
2023-01-03T18:17:52.654Z,99317.13
2023-01-03T18:22:55.218Z,99318.22
2023-01-03T18:28:01.684Z,99316.66
2023-01-03T18:33:04.454Z,99319.06
2023-01-03T18:38:06.943Z,99319.44
2023-01-03T18:43:13.794Z,99331.88
2023-01-03T18:48:19.019Z,99330.28
2023-01-03T18:53:28.742Z,99333.81
2023-01-03T18:58:37.686Z,99338.72
2023-01-03T19:03:41.513Z,99331.84
2023-01-03T19:08:44.678Z,99325.78
2023-01-03T19:13:54.839Z,99329.72
2023-01-03T19:18:57.993Z,99334.44
2023-01-03T19:24:15.680Z,99336.75
2023-01-03T19:29:37.406Z,99340.19
2023-01-03T19:34:39.855Z,99335.50
2023-01-03T19:39:42.635Z,99338.56
2023-01-03T19:44:45.561Z,99339.75
2023-01-03T19:49:49.030Z,99342.94
2023-01-03T19:54:52.163Z,99338.94
2023-01-03T19:59:58.453Z,99332.97
2023-01-03T20:05:01.825Z,99329.81
2023-01-03T20:10:04.894Z,99328.75
2023-01-03T20:15:19.928Z,99335.91
2023-01-03T20:20:25.422Z,99328.63
2023-01-03T20:25:32.988Z,99321.56
2023-01-03T20:30:36.033Z,99318.28
2023-01-03T20:41:01.965Z,99328.66
2023-01-03T20:46:05.067Z,99328.97
2023-01-03T20:51:10.076Z,99314.13
2023-01-03T20:56:13.802Z,99314.94
2023-01-03T21:01:16.377Z,99312.16
2023-01-03T21:06:25.437Z,99307.72
2023-01-03T21:11:30.778Z,99306.25
2023-01-03T21:16:39.147Z,99307.03
2023-01-03T21:21:43.824Z,99307.03
2023-01-03T21:26:46.747Z,99302.34
2023-01-03T21:31:53.478Z,99303.53
2023-01-03T21:36:56.131Z,99307.09
2023-01-03T21:42:17.266Z,99309.94
2023-01-03T21:47:19.643Z,99314.88
2023-01-03T21:52:22.372Z,99316.69
2023-01-03T21:57:25.091Z,99313.63
2023-01-03T22:02:46.278Z,99303.53
2023-01-03T22:07:48.900Z,99300.41
2023-01-03T22:12:57.297Z,99300.88
2023-01-03T22:17:59.718Z,99300.78
2023-01-03T22:23:02.385Z,99303.31
2023-01-03T22:28:05.188Z,99286.41
2023-01-03T22:33:07.765Z,99305.53
2023-01-03T22:38:10.182Z,99310.50
2023-01-03T22:43:12.659Z,99301.88
2023-01-03T22:48:15.270Z,99309.16
2023-01-03T22:53:17.902Z,99308.31
2023-01-03T22:58:20.705Z,99306.53
2023-01-03T23:03:23.225Z,99278.31
2023-01-03T23:08:25.597Z,99256.75
2023-01-03T23:13:28.002Z,99251.63
2023-01-03T23:18:33.752Z,99258.84
2023-01-03T23:23:36.336Z,99254.16
2023-01-03T23:28:38.726Z,99260.75
2023-01-03T23:33:41.270Z,99261.00
2023-01-03T23:38:43.737Z,99258.72
2023-01-03T23:43:46.540Z,99248.88
2023-01-03T23:48:53.677Z,99249.56
2023-01-03T23:53:56.231Z,99248.56
2023-01-03T23:58:58.752Z,99244.31
